sensor_id;sensor_type;location;lat;lon;timestamp;P1;durP1;ratioP1;P2;durP2;ratioP2
56363;SDS011;42261;52.094;4.326;2023-01-25T00:00:05;32.38;;;15.25;;
56363;SDS011;42261;52.094;4.326;2023-01-25T00:02:49;34.38;;;16.23;;
56363;SDS011;42261;52.094;4.326;2023-01-25T00:05:33;35.20;;;15.25;;
56363;SDS011;42261;52.094;4.326;2023-01-25T00:08:18;35.40;;;15.32;;
56363;SDS011;42261;52.094;4.326;2023-01-25T00:11:04;32.33;;;14.82;;
56363;SDS011;42261;52.094;4.326;2023-01-25T00:13:47;33.42;;;15.23;;
56363;SDS011;42261;52.094;4.326;2023-01-25T00:16:32;32.30;;;15.30;;
56363;SDS011;42261;52.094;4.326;2023-01-25T00:19:16;34.78;;;15.52;;
56363;SDS011;42261;52.094;4.326;2023-01-25T00:22:00;30.25;;;14.55;;
56363;SDS011;42261;52.094;4.326;2023-01-25T00:24:45;33.13;;;16.23;;
56363;SDS011;42261;52.094;4.326;2023-01-25T00:27:29;37.55;;;16.52;;
56363;SDS011;42261;52.094;4.326;2023-01-25T00:30:14;34.25;;;17.98;;
56363;SDS011;42261;52.094;4.326;2023-01-25T00:33:05;33.63;;;14.57;;
56363;SDS011;42261;52.094;4.326;2023-01-25T00:39:09;31.98;;;14.65;;
56363;SDS011;42261;52.094;4.326;2023-01-25T00:41:54;34.47;;;15.35;;
56363;SDS011;42261;52.094;4.326;2023-01-25T00:44:38;35.95;;;15.98;;
56363;SDS011;42261;52.094;4.326;2023-01-25T00:47:22;34.58;;;15.80;;
56363;SDS011;42261;52.094;4.326;2023-01-25T00:50:07;34.20;;;16.00;;
56363;SDS011;42261;52.094;4.326;2023-01-25T00:52:51;38.00;;;16.52;;
56363;SDS011;42261;52.094;4.326;2023-01-25T00:55:36;35.67;;;16.63;;
56363;SDS011;42261;52.094;4.326;2023-01-25T00:58:20;37.10;;;16.95;;
56363;SDS011;42261;52.094;4.326;2023-01-25T01:01:04;35.25;;;16.67;;
56363;SDS011;42261;52.094;4.326;2023-01-25T01:03:50;34.85;;;16.10;;
56363;SDS011;42261;52.094;4.326;2023-01-25T01:06:34;35.15;;;17.65;;
56363;SDS011;42261;52.094;4.326;2023-01-25T01:09:18;33.88;;;15.43;;
56363;SDS011;42261;52.094;4.326;2023-01-25T01:12:03;39.80;;;18.95;;
56363;SDS011;42261;52.094;4.326;2023-01-25T01:14:49;34.90;;;15.07;;
56363;SDS011;42261;52.094;4.326;2023-01-25T01:17:33;34.95;;;15.18;;
56363;SDS011;42261;52.094;4.326;2023-01-25T01:20:17;33.95;;;15.23;;
56363;SDS011;42261;52.094;4.326;2023-01-25T01:23:01;38.17;;;16.65;;
56363;SDS011;42261;52.094;4.326;2023-01-25T01:25:45;37.53;;;16.27;;
56363;SDS011;42261;52.094;4.326;2023-01-25T01:28:29;33.10;;;15.45;;
56363;SDS011;42261;52.094;4.326;2023-01-25T01:31:14;36.78;;;17.48;;
56363;SDS011;42261;52.094;4.326;2023-01-25T01:33:59;37.38;;;16.17;;
56363;SDS011;42261;52.094;4.326;2023-01-25T01:36:44;33.55;;;16.55;;
56363;SDS011;42261;52.094;4.326;2023-01-25T01:39:31;38.13;;;16.80;;
56363;SDS011;42261;52.094;4.326;2023-01-25T01:42:14;36.22;;;16.80;;
56363;SDS011;42261;52.094;4.326;2023-01-25T01:44:58;43.92;;;17.02;;
56363;SDS011;42261;52.094;4.326;2023-01-25T01:47:42;39.63;;;18.25;;
56363;SDS011;42261;52.094;4.326;2023-01-25T01:50:32;37.20;;;17.42;;
56363;SDS011;42261;52.094;4.326;2023-01-25T01:53:16;39.65;;;16.83;;
56363;SDS011;42261;52.094;4.326;2023-01-25T01:56:01;34.78;;;16.67;;
56363;SDS011;42261;52.094;4.326;2023-01-25T01:58:47;37.38;;;17.08;;
56363;SDS011;42261;52.094;4.326;2023-01-25T02:01:34;41.20;;;17.48;;
56363;SDS011;42261;52.094;4.326;2023-01-25T02:04:18;36.83;;;17.30;;
56363;SDS011;42261;52.094;4.326;2023-01-25T02:09:48;38.13;;;17.33;;
56363;SDS011;42261;52.094;4.326;2023-01-25T02:12:33;37.50;;;17.15;;
56363;SDS011;42261;52.094;4.326;2023-01-25T02:15:18;36.40;;;16.92;;
56363;SDS011;42261;52.094;4.326;2023-01-25T02:18:02;40.33;;;17.40;;
56363;SDS011;42261;52.094;4.326;2023-01-25T02:20:48;37.17;;;17.00;;
56363;SDS011;42261;52.094;4.326;2023-01-25T02:23:43;39.50;;;18.33;;
56363;SDS011;42261;52.094;4.326;2023-01-25T02:26:31;37.17;;;16.95;;
56363;SDS011;42261;52.094;4.326;2023-01-25T02:29:16;37.95;;;16.38;;
56363;SDS011;42261;52.094;4.326;2023-01-25T02:32:02;40.13;;;17.63;;
56363;SDS011;42261;52.094;4.326;2023-01-25T02:34:47;39.90;;;18.13;;
56363;SDS011;42261;52.094;4.326;2023-01-25T02:37:31;41.58;;;16.88;;
56363;SDS011;42261;52.094;4.326;2023-01-25T02:40:15;36.35;;;17.08;;
56363;SDS011;42261;52.094;4.326;2023-01-25T02:43:00;40.92;;;16.95;;
56363;SDS011;42261;52.094;4.326;2023-01-25T02:45:45;36.22;;;16.42;;
56363;SDS011;42261;52.094;4.326;2023-01-25T02:48:30;37.45;;;17.88;;
56363;SDS011;42261;52.094;4.326;2023-01-25T02:51:14;32.67;;;15.70;;
56363;SDS011;42261;52.094;4.326;2023-01-25T02:53:58;42.55;;;18.10;;
56363;SDS011;42261;52.094;4.326;2023-01-25T02:56:43;41.97;;;18.25;;
56363;SDS011;42261;52.094;4.326;2023-01-25T02:59:27;40.25;;;16.27;;
56363;SDS011;42261;52.094;4.326;2023-01-25T03:02:11;37.42;;;16.75;;
56363;SDS011;42261;52.094;4.326;2023-01-25T03:04:57;35.47;;;15.93;;
56363;SDS011;42261;52.094;4.326;2023-01-25T03:07:41;35.92;;;16.60;;
56363;SDS011;42261;52.094;4.326;2023-01-25T03:10:25;29.58;;;14.85;;
56363;SDS011;42261;52.094;4.326;2023-01-25T03:13:09;38.55;;;16.00;;
56363;SDS011;42261;52.094;4.326;2023-01-25T03:16:00;35.50;;;15.35;;
56363;SDS011;42261;52.094;4.326;2023-01-25T03:18:45;35.22;;;15.43;;
56363;SDS011;42261;52.094;4.326;2023-01-25T03:21:29;34.05;;;15.45;;
56363;SDS011;42261;52.094;4.326;2023-01-25T03:24:13;39.50;;;16.92;;
56363;SDS011;42261;52.094;4.326;2023-01-25T03:26:57;38.50;;;16.00;;
56363;SDS011;42261;52.094;4.326;2023-01-25T03:29:53;39.78;;;16.98;;
56363;SDS011;42261;52.094;4.326;2023-01-25T03:32:37;38.30;;;17.00;;
56363;SDS011;42261;52.094;4.326;2023-01-25T03:35:21;39.58;;;16.27;;
56363;SDS011;42261;52.094;4.326;2023-01-25T03:38:05;36.95;;;16.58;;
56363;SDS011;42261;52.094;4.326;2023-01-25T03:40:49;35.58;;;16.08;;
56363;SDS011;42261;52.094;4.326;2023-01-25T03:43:34;37.13;;;15.63;;
56363;SDS011;42261;52.094;4.326;2023-01-25T03:46:18;40.88;;;17.60;;
56363;SDS011;42261;52.094;4.326;2023-01-25T03:49:02;35.35;;;15.20;;
56363;SDS011;42261;52.094;4.326;2023-01-25T03:51:46;37.65;;;16.05;;
56363;SDS011;42261;52.094;4.326;2023-01-25T03:54:30;36.40;;;15.13;;
56363;SDS011;42261;52.094;4.326;2023-01-25T03:57:14;32.83;;;15.05;;
56363;SDS011;42261;52.094;4.326;2023-01-25T03:59:58;43.65;;;18.00;;
56363;SDS011;42261;52.094;4.326;2023-01-25T04:02:42;35.63;;;15.90;;
56363;SDS011;42261;52.094;4.326;2023-01-25T04:05:26;37.97;;;17.15;;
56363;SDS011;42261;52.094;4.326;2023-01-25T04:08:10;36.85;;;15.65;;
56363;SDS011;42261;52.094;4.326;2023-01-25T04:10:59;34.17;;;16.90;;
56363;SDS011;42261;52.094;4.326;2023-01-25T04:13:43;35.28;;;16.38;;
56363;SDS011;42261;52.094;4.326;2023-01-25T04:16:26;36.88;;;16.38;;
56363;SDS011;42261;52.094;4.326;2023-01-25T04:19:13;38.72;;;15.52;;
56363;SDS011;42261;52.094;4.326;2023-01-25T04:21:57;40.08;;;16.52;;
56363;SDS011;42261;52.094;4.326;2023-01-25T04:24:42;32.08;;;14.90;;
56363;SDS011;42261;52.094;4.326;2023-01-25T04:27:26;37.47;;;17.60;;
56363;SDS011;42261;52.094;4.326;2023-01-25T04:30:10;36.05;;;16.20;;
56363;SDS011;42261;52.094;4.326;2023-01-25T04:32:54;41.83;;;16.38;;
56363;SDS011;42261;52.094;4.326;2023-01-25T04:35:40;39.05;;;17.35;;
56363;SDS011;42261;52.094;4.326;2023-01-25T04:38:24;36.33;;;15.45;;
56363;SDS011;42261;52.094;4.326;2023-01-25T04:41:08;33.88;;;14.90;;
56363;SDS011;42261;52.094;4.326;2023-01-25T04:43:53;38.20;;;17.17;;
56363;SDS011;42261;52.094;4.326;2023-01-25T04:46:37;38.40;;;16.88;;
56363;SDS011;42261;52.094;4.326;2023-01-25T04:49:21;34.25;;;15.50;;
56363;SDS011;42261;52.094;4.326;2023-01-25T04:52:07;38.85;;;16.95;;
56363;SDS011;42261;52.094;4.326;2023-01-25T04:54:51;35.13;;;15.43;;
56363;SDS011;42261;52.094;4.326;2023-01-25T04:57:35;42.08;;;17.30;;
56363;SDS011;42261;52.094;4.326;2023-01-25T05:00:19;38.47;;;15.80;;
56363;SDS011;42261;52.094;4.326;2023-01-25T05:03:03;37.40;;;17.13;;
56363;SDS011;42261;52.094;4.326;2023-01-25T05:05:48;44.63;;;19.58;;
56363;SDS011;42261;52.094;4.326;2023-01-25T05:08:32;42.17;;;18.55;;
56363;SDS011;42261;52.094;4.326;2023-01-25T05:11:16;45.58;;;20.10;;
56363;SDS011;42261;52.094;4.326;2023-01-25T05:14:00;47.22;;;21.60;;
56363;SDS011;42261;52.094;4.326;2023-01-25T05:16:45;49.72;;;22.15;;
56363;SDS011;42261;52.094;4.326;2023-01-25T05:19:30;52.47;;;22.05;;
56363;SDS011;42261;52.094;4.326;2023-01-25T05:22:14;51.10;;;23.05;;
56363;SDS011;42261;52.094;4.326;2023-01-25T05:24:58;55.75;;;21.65;;
56363;SDS011;42261;52.094;4.326;2023-01-25T05:27:44;55.30;;;21.70;;
56363;SDS011;42261;52.094;4.326;2023-01-25T05:30:32;53.53;;;20.80;;
56363;SDS011;42261;52.094;4.326;2023-01-25T05:33:16;51.72;;;22.63;;
56363;SDS011;42261;52.094;4.326;2023-01-25T05:36:00;50.35;;;21.15;;
56363;SDS011;42261;52.094;4.326;2023-01-25T05:38:44;51.78;;;19.88;;
56363;SDS011;42261;52.094;4.326;2023-01-25T05:41:29;48.72;;;21.33;;
56363;SDS011;42261;52.094;4.326;2023-01-25T05:44:13;50.95;;;20.10;;
56363;SDS011;42261;52.094;4.326;2023-01-25T05:47:00;53.90;;;22.83;;
56363;SDS011;42261;52.094;4.326;2023-01-25T05:49:45;51.90;;;19.63;;
56363;SDS011;42261;52.094;4.326;2023-01-25T05:52:29;51.00;;;21.85;;
56363;SDS011;42261;52.094;4.326;2023-01-25T05:55:14;52.00;;;20.92;;
56363;SDS011;42261;52.094;4.326;2023-01-25T05:57:59;42.90;;;19.17;;
56363;SDS011;42261;52.094;4.326;2023-01-25T06:00:43;49.35;;;20.77;;
56363;SDS011;42261;52.094;4.326;2023-01-25T06:03:27;48.10;;;22.25;;
56363;SDS011;42261;52.094;4.326;2023-01-25T06:06:11;53.38;;;21.02;;
56363;SDS011;42261;52.094;4.326;2023-01-25T06:08:56;51.08;;;21.40;;
56363;SDS011;42261;52.094;4.326;2023-01-25T06:11:43;50.25;;;21.67;;
56363;SDS011;42261;52.094;4.326;2023-01-25T06:14:29;52.97;;;21.15;;
56363;SDS011;42261;52.094;4.326;2023-01-25T06:17:13;45.85;;;18.83;;
56363;SDS011;42261;52.094;4.326;2023-01-25T06:19:56;48.22;;;21.33;;
56363;SDS011;42261;52.094;4.326;2023-01-25T06:22:41;51.38;;;20.15;;
56363;SDS011;42261;52.094;4.326;2023-01-25T06:25:25;52.00;;;21.95;;
56363;SDS011;42261;52.094;4.326;2023-01-25T06:28:10;45.22;;;19.58;;
56363;SDS011;42261;52.094;4.326;2023-01-25T06:30:53;58.45;;;22.33;;
56363;SDS011;42261;52.094;4.326;2023-01-25T06:33:38;53.25;;;21.10;;
56363;SDS011;42261;52.094;4.326;2023-01-25T06:36:22;54.38;;;20.27;;
56363;SDS011;42261;52.094;4.326;2023-01-25T06:39:06;52.08;;;19.95;;
56363;SDS011;42261;52.094;4.326;2023-01-25T06:41:50;52.75;;;20.95;;
56363;SDS011;42261;52.094;4.326;2023-01-25T06:44:34;60.08;;;22.73;;
56363;SDS011;42261;52.094;4.326;2023-01-25T06:47:18;50.15;;;21.40;;
56363;SDS011;42261;52.094;4.326;2023-01-25T06:50:02;44.00;;;19.20;;
56363;SDS011;42261;52.094;4.326;2023-01-25T06:52:51;47.25;;;20.52;;
56363;SDS011;42261;52.094;4.326;2023-01-25T06:55:35;47.72;;;21.13;;
56363;SDS011;42261;52.094;4.326;2023-01-25T06:58:19;48.92;;;20.48;;
56363;SDS011;42261;52.094;4.326;2023-01-25T07:01:15;50.08;;;21.20;;
56363;SDS011;42261;52.094;4.326;2023-01-25T07:04:02;53.10;;;21.45;;
56363;SDS011;42261;52.094;4.326;2023-01-25T07:06:46;49.67;;;21.83;;
56363;SDS011;42261;52.094;4.326;2023-01-25T07:09:30;47.30;;;21.10;;
56363;SDS011;42261;52.094;4.326;2023-01-25T07:12:14;51.78;;;21.33;;
56363;SDS011;42261;52.094;4.326;2023-01-25T07:14:58;49.88;;;22.02;;
56363;SDS011;42261;52.094;4.326;2023-01-25T07:17:42;54.00;;;21.20;;
56363;SDS011;42261;52.094;4.326;2023-01-25T07:20:26;50.40;;;21.42;;
56363;SDS011;42261;52.094;4.326;2023-01-25T07:23:10;52.50;;;22.30;;
56363;SDS011;42261;52.094;4.326;2023-01-25T07:25:54;46.90;;;20.02;;
56363;SDS011;42261;52.094;4.326;2023-01-25T07:28:40;46.63;;;20.13;;
56363;SDS011;42261;52.094;4.326;2023-01-25T07:31:25;46.03;;;19.65;;
56363;SDS011;42261;52.094;4.326;2023-01-25T07:34:10;51.20;;;22.95;;
56363;SDS011;42261;52.094;4.326;2023-01-25T07:36:55;53.15;;;20.50;;
56363;SDS011;42261;52.094;4.326;2023-01-25T07:39:40;51.88;;;20.52;;
56363;SDS011;42261;52.094;4.326;2023-01-25T07:42:30;49.25;;;21.25;;
56363;SDS011;42261;52.094;4.326;2023-01-25T07:45:14;52.88;;;21.98;;
56363;SDS011;42261;52.094;4.326;2023-01-25T07:47:59;50.92;;;21.70;;
56363;SDS011;42261;52.094;4.326;2023-01-25T07:50:43;46.67;;;20.23;;
56363;SDS011;42261;52.094;4.326;2023-01-25T07:53:29;45.97;;;20.60;;
56363;SDS011;42261;52.094;4.326;2023-01-25T07:56:13;45.33;;;19.88;;
56363;SDS011;42261;52.094;4.326;2023-01-25T07:58:58;49.45;;;21.30;;
56363;SDS011;42261;52.094;4.326;2023-01-25T08:01:43;51.55;;;23.25;;
56363;SDS011;42261;52.094;4.326;2023-01-25T08:04:27;49.45;;;20.70;;
56363;SDS011;42261;52.094;4.326;2023-01-25T08:07:11;47.50;;;20.40;;
56363;SDS011;42261;52.094;4.326;2023-01-25T08:09:56;45.83;;;19.98;;
56363;SDS011;42261;52.094;4.326;2023-01-25T08:12:43;52.88;;;21.52;;
56363;SDS011;42261;52.094;4.326;2023-01-25T08:15:27;52.22;;;21.27;;
56363;SDS011;42261;52.094;4.326;2023-01-25T08:18:11;47.92;;;22.27;;
56363;SDS011;42261;52.094;4.326;2023-01-25T08:20:57;52.50;;;21.77;;
56363;SDS011;42261;52.094;4.326;2023-01-25T08:23:42;48.22;;;20.90;;
56363;SDS011;42261;52.094;4.326;2023-01-25T08:26:27;52.60;;;20.90;;
56363;SDS011;42261;52.094;4.326;2023-01-25T08:29:11;49.97;;;21.85;;
56363;SDS011;42261;52.094;4.326;2023-01-25T08:31:55;47.38;;;21.23;;
56363;SDS011;42261;52.094;4.326;2023-01-25T08:34:39;54.17;;;21.63;;
56363;SDS011;42261;52.094;4.326;2023-01-25T08:37:24;54.38;;;22.38;;
56363;SDS011;42261;52.094;4.326;2023-01-25T08:40:12;49.50;;;21.25;;
56363;SDS011;42261;52.094;4.326;2023-01-25T08:42:59;51.40;;;21.38;;
56363;SDS011;42261;52.094;4.326;2023-01-25T08:45:43;47.70;;;21.48;;
56363;SDS011;42261;52.094;4.326;2023-01-25T08:48:28;52.22;;;21.90;;
56363;SDS011;42261;52.094;4.326;2023-01-25T08:51:13;57.30;;;21.55;;
56363;SDS011;42261;52.094;4.326;2023-01-25T08:54:04;53.10;;;21.98;;
56363;SDS011;42261;52.094;4.326;2023-01-25T08:56:49;50.53;;;21.35;;
56363;SDS011;42261;52.094;4.326;2023-01-25T08:59:33;48.80;;;21.88;;
56363;SDS011;42261;52.094;4.326;2023-01-25T09:02:17;56.20;;;21.58;;
56363;SDS011;42261;52.094;4.326;2023-01-25T09:05:03;53.03;;;23.27;;
56363;SDS011;42261;52.094;4.326;2023-01-25T09:07:47;53.20;;;22.30;;
56363;SDS011;42261;52.094;4.326;2023-01-25T09:10:32;50.47;;;20.42;;
56363;SDS011;42261;52.094;4.326;2023-01-25T09:13:28;57.70;;;23.92;;
56363;SDS011;42261;52.094;4.326;2023-01-25T09:16:22;56.42;;;25.20;;
56363;SDS011;42261;52.094;4.326;2023-01-25T09:19:15;47.03;;;21.63;;
56363;SDS011;42261;52.094;4.326;2023-01-25T09:22:00;47.72;;;21.80;;
56363;SDS011;42261;52.094;4.326;2023-01-25T09:24:45;52.92;;;22.60;;
56363;SDS011;42261;52.094;4.326;2023-01-25T09:27:29;49.45;;;21.25;;
56363;SDS011;42261;52.094;4.326;2023-01-25T09:30:13;43.40;;;18.95;;
56363;SDS011;42261;52.094;4.326;2023-01-25T09:32:57;43.65;;;18.70;;
56363;SDS011;42261;52.094;4.326;2023-01-25T09:35:45;48.17;;;20.05;;
56363;SDS011;42261;52.094;4.326;2023-01-25T09:38:30;48.55;;;21.10;;
56363;SDS011;42261;52.094;4.326;2023-01-25T09:46:58;41.45;;;19.77;;
56363;SDS011;42261;52.094;4.326;2023-01-25T09:50:07;56.03;;;22.05;;
56363;SDS011;42261;52.094;4.326;2023-01-25T09:53:15;48.80;;;21.13;;
56363;SDS011;42261;52.094;4.326;2023-01-25T09:56:03;46.70;;;20.42;;
56363;SDS011;42261;52.094;4.326;2023-01-25T09:58:52;49.55;;;20.50;;
56363;SDS011;42261;52.094;4.326;2023-01-25T10:04:24;41.33;;;18.67;;
56363;SDS011;42261;52.094;4.326;2023-01-25T10:07:22;56.40;;;22.85;;
56363;SDS011;42261;52.094;4.326;2023-01-25T10:10:10;49.95;;;20.35;;
56363;SDS011;42261;52.094;4.326;2023-01-25T10:12:56;47.30;;;20.55;;
56363;SDS011;42261;52.094;4.326;2023-01-25T10:15:46;48.92;;;21.45;;
56363;SDS011;42261;52.094;4.326;2023-01-25T10:21:36;45.45;;;20.35;;
56363;SDS011;42261;52.094;4.326;2023-01-25T10:27:13;52.50;;;21.13;;
56363;SDS011;42261;52.094;4.326;2023-01-25T10:30:01;57.80;;;20.45;;
56363;SDS011;42261;52.094;4.326;2023-01-25T10:32:45;48.80;;;21.52;;
56363;SDS011;42261;52.094;4.326;2023-01-25T10:35:30;51.58;;;22.40;;
56363;SDS011;42261;52.094;4.326;2023-01-25T10:38:33;44.50;;;19.08;;
56363;SDS011;42261;52.094;4.326;2023-01-25T10:41:24;52.25;;;21.25;;
56363;SDS011;42261;52.094;4.326;2023-01-25T10:44:10;42.80;;;19.27;;
56363;SDS011;42261;52.094;4.326;2023-01-25T10:49:54;53.00;;;19.50;;
56363;SDS011;42261;52.094;4.326;2023-01-25T10:52:39;51.78;;;19.17;;
56363;SDS011;42261;52.094;4.326;2023-01-25T10:55:23;46.33;;;19.50;;
56363;SDS011;42261;52.094;4.326;2023-01-25T10:58:27;45.58;;;19.63;;
56363;SDS011;42261;52.094;4.326;2023-01-25T11:01:27;46.47;;;19.75;;
56363;SDS011;42261;52.094;4.326;2023-01-25T11:04:31;48.28;;;21.45;;
56363;SDS011;42261;52.094;4.326;2023-01-25T11:07:24;49.08;;;19.15;;
56363;SDS011;42261;52.094;4.326;2023-01-25T11:13:26;48.22;;;19.38;;
56363;SDS011;42261;52.094;4.326;2023-01-25T11:19:30;49.08;;;19.40;;
56363;SDS011;42261;52.094;4.326;2023-01-25T11:25:24;44.58;;;19.13;;
56363;SDS011;42261;52.094;4.326;2023-01-25T11:28:10;48.05;;;18.95;;
56363;SDS011;42261;52.094;4.326;2023-01-25T11:30:54;44.95;;;18.38;;
56363;SDS011;42261;52.094;4.326;2023-01-25T11:33:38;49.15;;;19.90;;
56363;SDS011;42261;52.094;4.326;2023-01-25T11:42:22;50.53;;;19.20;;
56363;SDS011;42261;52.094;4.326;2023-01-25T11:48:23;47.55;;;19.35;;
56363;SDS011;42261;52.094;4.326;2023-01-25T11:51:24;49.10;;;21.02;;
56363;SDS011;42261;52.094;4.326;2023-01-25T11:54:32;47.20;;;19.80;;
56363;SDS011;42261;52.094;4.326;2023-01-25T12:03:17;44.80;;;17.42;;
56363;SDS011;42261;52.094;4.326;2023-01-25T12:24:01;50.83;;;19.27;;
56363;SDS011;42261;52.094;4.326;2023-01-25T12:29:44;47.55;;;20.08;;
56363;SDS011;42261;52.094;4.326;2023-01-25T12:32:37;45.22;;;18.95;;
56363;SDS011;42261;52.094;4.326;2023-01-25T12:35:36;52.75;;;20.10;;
56363;SDS011;42261;52.094;4.326;2023-01-25T12:38:25;52.33;;;21.20;;
56363;SDS011;42261;52.094;4.326;2023-01-25T12:41:19;49.85;;;21.60;;
56363;SDS011;42261;52.094;4.326;2023-01-25T12:47:16;58.20;;;22.08;;
56363;SDS011;42261;52.094;4.326;2023-01-25T12:50:10;48.85;;;20.45;;
56363;SDS011;42261;52.094;4.326;2023-01-25T12:52:57;46.28;;;20.38;;
56363;SDS011;42261;52.094;4.326;2023-01-25T12:55:44;51.42;;;20.63;;
56363;SDS011;42261;52.094;4.326;2023-01-25T12:58:49;50.33;;;19.40;;
56363;SDS011;42261;52.094;4.326;2023-01-25T13:07:35;49.47;;;20.33;;
56363;SDS011;42261;52.094;4.326;2023-01-25T13:10:25;45.90;;;17.38;;
56363;SDS011;42261;52.094;4.326;2023-01-25T13:19:16;51.83;;;17.65;;
56363;SDS011;42261;52.094;4.326;2023-01-25T13:22:00;47.85;;;17.55;;
56363;SDS011;42261;52.094;4.326;2023-01-25T13:27:47;57.65;;;16.63;;
56363;SDS011;42261;52.094;4.326;2023-01-25T13:30:32;46.53;;;18.17;;
56363;SDS011;42261;52.094;4.326;2023-01-25T13:33:30;47.50;;;20.45;;
56363;SDS011;42261;52.094;4.326;2023-01-25T13:48:04;50.88;;;18.65;;
56363;SDS011;42261;52.094;4.326;2023-01-25T13:50:54;48.90;;;18.95;;
56363;SDS011;42261;52.094;4.326;2023-01-25T13:53:40;51.28;;;18.98;;
56363;SDS011;42261;52.094;4.326;2023-01-25T13:56:31;47.65;;;18.40;;
56363;SDS011;42261;52.094;4.326;2023-01-25T13:59:29;48.78;;;19.48;;
56363;SDS011;42261;52.094;4.326;2023-01-25T14:02:15;48.42;;;18.80;;
56363;SDS011;42261;52.094;4.326;2023-01-25T14:05:01;50.60;;;19.30;;
56363;SDS011;42261;52.094;4.326;2023-01-25T14:07:46;45.33;;;17.77;;
56363;SDS011;42261;52.094;4.326;2023-01-25T14:10:31;41.47;;;17.70;;
56363;SDS011;42261;52.094;4.326;2023-01-25T14:13:16;45.85;;;18.00;;
56363;SDS011;42261;52.094;4.326;2023-01-25T14:16:02;45.47;;;18.20;;
56363;SDS011;42261;52.094;4.326;2023-01-25T14:18:49;49.03;;;19.45;;
56363;SDS011;42261;52.094;4.326;2023-01-25T14:21:35;42.75;;;18.65;;
56363;SDS011;42261;52.094;4.326;2023-01-25T14:24:29;48.47;;;18.77;;
56363;SDS011;42261;52.094;4.326;2023-01-25T14:27:21;46.17;;;18.10;;
56363;SDS011;42261;52.094;4.326;2023-01-25T14:30:06;51.15;;;16.98;;
56363;SDS011;42261;52.094;4.326;2023-01-25T14:35:47;39.35;;;17.90;;
56363;SDS011;42261;52.094;4.326;2023-01-25T14:38:36;47.75;;;17.92;;
56363;SDS011;42261;52.094;4.326;2023-01-25T14:44:05;42.28;;;17.40;;
56363;SDS011;42261;52.094;4.326;2023-01-25T14:53:21;42.30;;;17.13;;
56363;SDS011;42261;52.094;4.326;2023-01-25T14:56:12;44.40;;;18.30;;
56363;SDS011;42261;52.094;4.326;2023-01-25T14:59:00;43.03;;;17.85;;
56363;SDS011;42261;52.094;4.326;2023-01-25T15:01:47;44.55;;;18.60;;
56363;SDS011;42261;52.094;4.326;2023-01-25T15:04:33;48.83;;;19.05;;
56363;SDS011;42261;52.094;4.326;2023-01-25T15:10:18;54.05;;;18.27;;
56363;SDS011;42261;52.094;4.326;2023-01-25T15:16:00;50.70;;;19.88;;
56363;SDS011;42261;52.094;4.326;2023-01-25T15:21:29;44.45;;;17.77;;
56363;SDS011;42261;52.094;4.326;2023-01-25T15:24:15;46.03;;;19.10;;
56363;SDS011;42261;52.094;4.326;2023-01-25T15:27:01;52.35;;;19.90;;
56363;SDS011;42261;52.094;4.326;2023-01-25T15:29:46;46.40;;;19.48;;
56363;SDS011;42261;52.094;4.326;2023-01-25T15:32:31;44.35;;;18.20;;
56363;SDS011;42261;52.094;4.326;2023-01-25T15:35:16;48.13;;;18.35;;
56363;SDS011;42261;52.094;4.326;2023-01-25T15:38:04;46.38;;;19.05;;
56363;SDS011;42261;52.094;4.326;2023-01-25T15:40:48;48.33;;;20.20;;
56363;SDS011;42261;52.094;4.326;2023-01-25T15:43:32;47.15;;;19.50;;
56363;SDS011;42261;52.094;4.326;2023-01-25T15:46:20;43.72;;;18.02;;
56363;SDS011;42261;52.094;4.326;2023-01-25T15:49:10;46.78;;;18.25;;
56363;SDS011;42261;52.094;4.326;2023-01-25T15:54:41;43.58;;;18.00;;
56363;SDS011;42261;52.094;4.326;2023-01-25T15:57:27;49.47;;;18.83;;
56363;SDS011;42261;52.094;4.326;2023-01-25T16:00:19;49.42;;;18.55;;
56363;SDS011;42261;52.094;4.326;2023-01-25T16:03:07;47.80;;;19.08;;
56363;SDS011;42261;52.094;4.326;2023-01-25T16:05:53;47.15;;;18.58;;
56363;SDS011;42261;52.094;4.326;2023-01-25T16:08:38;45.22;;;18.70;;
56363;SDS011;42261;52.094;4.326;2023-01-25T16:11:23;48.67;;;18.92;;
56363;SDS011;42261;52.094;4.326;2023-01-25T16:14:07;44.15;;;18.10;;
56363;SDS011;42261;52.094;4.326;2023-01-25T16:16:52;46.67;;;20.73;;
56363;SDS011;42261;52.094;4.326;2023-01-25T16:19:36;53.45;;;19.17;;
56363;SDS011;42261;52.094;4.326;2023-01-25T16:22:21;51.47;;;20.42;;
56363;SDS011;42261;52.094;4.326;2023-01-25T16:25:05;49.95;;;19.35;;
56363;SDS011;42261;52.094;4.326;2023-01-25T16:27:51;44.85;;;19.10;;
56363;SDS011;42261;52.094;4.326;2023-01-25T16:30:35;51.67;;;19.88;;
56363;SDS011;42261;52.094;4.326;2023-01-25T16:33:20;50.13;;;21.60;;
56363;SDS011;42261;52.094;4.326;2023-01-25T16:36:14;54.22;;;20.50;;
56363;SDS011;42261;52.094;4.326;2023-01-25T16:39:10;49.92;;;20.13;;
56363;SDS011;42261;52.094;4.326;2023-01-25T16:42:11;56.17;;;19.73;;
56363;SDS011;42261;52.094;4.326;2023-01-25T16:44:55;57.88;;;22.95;;
56363;SDS011;42261;52.094;4.326;2023-01-25T16:47:39;58.33;;;21.30;;
56363;SDS011;42261;52.094;4.326;2023-01-25T16:50:23;53.17;;;19.40;;
56363;SDS011;42261;52.094;4.326;2023-01-25T16:53:08;54.33;;;22.55;;
56363;SDS011;42261;52.094;4.326;2023-01-25T16:55:52;60.13;;;23.80;;
56363;SDS011;42261;52.094;4.326;2023-01-25T16:58:37;57.20;;;22.17;;
56363;SDS011;42261;52.094;4.326;2023-01-25T17:01:22;53.50;;;22.35;;
56363;SDS011;42261;52.094;4.326;2023-01-25T17:04:07;65.07;;;23.42;;
56363;SDS011;42261;52.094;4.326;2023-01-25T17:06:51;64.88;;;23.63;;
56363;SDS011;42261;52.094;4.326;2023-01-25T17:09:36;66.20;;;24.15;;
56363;SDS011;42261;52.094;4.326;2023-01-25T17:12:20;58.58;;;23.38;;
56363;SDS011;42261;52.094;4.326;2023-01-25T17:15:04;61.60;;;23.27;;
56363;SDS011;42261;52.094;4.326;2023-01-25T17:17:49;63.42;;;25.02;;
56363;SDS011;42261;52.094;4.326;2023-01-25T17:20:33;59.88;;;22.48;;
56363;SDS011;42261;52.094;4.326;2023-01-25T17:23:17;58.08;;;22.98;;
56363;SDS011;42261;52.094;4.326;2023-01-25T17:26:05;65.05;;;26.27;;
56363;SDS011;42261;52.094;4.326;2023-01-25T17:28:49;69.07;;;24.45;;
56363;SDS011;42261;52.094;4.326;2023-01-25T17:31:34;65.45;;;25.13;;
56363;SDS011;42261;52.094;4.326;2023-01-25T17:34:18;60.83;;;24.60;;
56363;SDS011;42261;52.094;4.326;2023-01-25T17:37:02;77.22;;;28.17;;
56363;SDS011;42261;52.094;4.326;2023-01-25T17:39:45;68.93;;;27.85;;
56363;SDS011;42261;52.094;4.326;2023-01-25T17:42:31;62.13;;;23.15;;
56363;SDS011;42261;52.094;4.326;2023-01-25T17:45:16;71.45;;;27.25;;
56363;SDS011;42261;52.094;4.326;2023-01-25T17:48:00;67.90;;;27.40;;
56363;SDS011;42261;52.094;4.326;2023-01-25T17:50:45;71.68;;;25.33;;
56363;SDS011;42261;52.094;4.326;2023-01-25T17:53:32;71.05;;;27.55;;
56363;SDS011;42261;52.094;4.326;2023-01-25T17:56:16;68.53;;;27.92;;
56363;SDS011;42261;52.094;4.326;2023-01-25T17:59:01;76.60;;;30.65;;
56363;SDS011;42261;52.094;4.326;2023-01-25T18:01:48;73.78;;;30.77;;
56363;SDS011;42261;52.094;4.326;2023-01-25T18:04:33;79.68;;;29.40;;
56363;SDS011;42261;52.094;4.326;2023-01-25T18:07:17;74.05;;;28.15;;
56363;SDS011;42261;52.094;4.326;2023-01-25T18:10:01;81.47;;;29.90;;
56363;SDS011;42261;52.094;4.326;2023-01-25T18:12:45;82.63;;;28.52;;